Kimball, NE

2:32 PM MST on January 23, 2017 (GMT -0700)
Kimball Municipal-Arraj

Weather History for KIBM - February, 2013

Change the Weather History Date:

Friday, February 8, 2013

  Actual Average (KSNY) Record (KSNY)
Temperature  
Mean Temperature 33 °F -  
Max Temperature 51 °F 38 °F 75 °F (1954)
Min Temperature 16 °F 10 °F -10 °F (1989)
Degree Days  
Heating Degree Days 32    
Moisture  
Dew Point 18 °F    
Average Humidity 55    
Maximum Humidity 86    
Minimum Humidity 20    
Precipitation  
Precipitation 0.00 in - - ()
Sea Level Pressure  
Sea Level Pressure 29.84 in    
Wind  
Wind Speed 9 mph (SSE)    
Max Wind Speed 18 mph    
Max Gust Speed 24 mph    
Visibility 10 miles    
Events      
Averages and records for this station are not official NWS values.
T = Trace of Precipitation, MM = Missing Value Source: NWS Daily Summary

Daily Weather History Graph

Daily Weather History Graph

Search for Another Location

Airport or City:

Trip Planner

Search our weather history database for the weather conditions in past years. The results will help you decide how hot, cold, wet, or windy it might be!

Date:

Astronomy

Feb. 08, 2013 Rise Set
Actual Time 7:57 AM CST 6:20 PM CST
Civil Twilight 7:29 AM CST 6:49 PM CST
Nautical Twilight 6:56 AM CST 7:21 PM CST
Astronomical Twilight 6:24 AM CST 7:54 PM CST
Moon 6:28 AM CST (2/8) 4:56 PM CST (2/8)
Length of Visible Light 11h 20m
Length of Day
10h 22m
Waning Crescent, 3% of the Moon is Illuminated
Feb 8
Waning Crescent
Feb 10
New
Feb 17
First Quarter
Feb 25
Full
Mar 4
Last Quarter

Hourly Weather History & Observations

Time (CST) Temp. Windchill Dew Point Humidity Pressure Visibility Wind Dir Wind Speed Gust Speed Precip Events Conditions
12:15 AM 30.9 °F 21.7 °F 17.6 °F 58% 30.02 in 10.0 mi SSE 11.5 mph - N/A   Clear
12:35 AM 30.2 °F 20.8 °F 16.7 °F 57% 30.02 in 10.0 mi SSE 11.5 mph - N/A   Clear
12:55 AM 31.1 °F 21.9 °F 16.2 °F 54% 30.01 in 10.0 mi SSE 11.5 mph - N/A   Clear
1:15 AM 29.3 °F 20.8 °F 15.8 °F 57% 30.01 in 10.0 mi SSE 9.2 mph - N/A   Clear
1:35 AM 27.5 °F 18.0 °F 15.8 °F 61% 29.99 in 10.0 mi South 10.4 mph - N/A   Clear
2:15 AM 27.5 °F 16.8 °F 16.9 °F 64% 29.98 in 10.0 mi South 12.7 mph - N/A   Clear
2:35 AM 31.1 °F 20.1 °F 18.0 °F 58% 29.97 in 10.0 mi South 16.1 mph - N/A   Clear
2:55 AM 32.0 °F 20.5 °F 17.8 °F 56% 29.97 in 10.0 mi South 18.4 mph 24.2 mph N/A   Clear
3:35 AM 27.3 °F 17.1 °F 16.7 °F 64% 29.96 in 10.0 mi South 11.5 mph - N/A   Clear
3:55 AM 28.0 °F 18.1 °F 17.6 °F 65% 29.95 in 10.0 mi South 11.5 mph - N/A   Clear
4:15 AM 26.6 °F 16.8 °F 17.2 °F 68% 29.94 in 10.0 mi SSW 10.4 mph - N/A   Clear
4:35 AM 25.5 °F 16.9 °F 16.7 °F 69% 29.94 in 10.0 mi South 8.1 mph - N/A   Clear
4:55 AM 24.8 °F 16.9 °F 16.7 °F 71% 29.94 in 10.0 mi South 6.9 mph - N/A   Clear
5:15 AM 24.4 °F 20.1 °F 16.5 °F 72% 29.94 in 10.0 mi SW 3.5 mph - N/A   Clear
5:35 AM 24.4 °F 14.9 °F 16.7 °F 72% 29.92 in 10.0 mi South 9.2 mph - N/A   Clear
5:55 AM 23.7 °F 13.3 °F 16.7 °F 75% 29.91 in 10.0 mi South 10.4 mph - N/A   Clear
6:15 AM 23.7 °F 14.0 °F 16.7 °F 75% 29.92 in 10.0 mi SSW 9.2 mph - N/A   Clear
6:35 AM 23.5 °F 13.7 °F 16.7 °F 75% 29.92 in 10.0 mi SSW 9.2 mph - N/A   Clear
6:55 AM 21.9 °F 14.5 °F 15.6 °F 77% 29.92 in 10.0 mi SSW 5.8 mph - N/A   Clear
7:15 AM 19.8 °F 9.1 °F 14.7 °F 81% 29.92 in 10.0 mi WSW 9.2 mph - N/A   Clear
7:35 AM 18.1 °F 7.1 °F 13.8 °F 83% 29.93 in 10.0 mi West 9.2 mph - N/A   Clear
7:55 AM 18.0 °F 7.7 °F 14.2 °F 85% 29.94 in 10.0 mi WNW 8.1 mph - N/A   Clear
8:15 AM 16.7 °F 6.2 °F 13.1 °F 86% 29.94 in 10.0 mi WNW 8.1 mph - N/A   Clear
8:35 AM 18.5 °F 11.7 °F 14.7 °F 85% 29.94 in 10.0 mi NW 4.6 mph - N/A   Clear
8:55 AM 22.1 °F 14.7 °F 17.1 °F 81% 29.93 in 10.0 mi West 5.8 mph - N/A   Clear
9:15 AM 24.8 °F - 18.3 °F 76% 29.94 in 10.0 mi Calm Calm - N/A   Clear
9:35 AM 28.6 °F 19.9 °F 20.3 °F 71% 29.94 in 10.0 mi West 9.2 mph - N/A   Clear
9:55 AM 29.5 °F 23.4 °F 20.8 °F 70% 29.92 in 10.0 mi WSW 5.8 mph - N/A   Clear
10:15 AM 32.0 °F 27.5 °F 21.9 °F 66% 29.91 in 10.0 mi WSW 4.6 mph - N/A   Clear
10:35 AM 34.7 °F 31.8 °F 22.6 °F 61% 29.90 in 10.0 mi SW 3.5 mph - N/A   Clear
10:55 AM 38.5 °F - 22.6 °F 53% 29.89 in 10.0 mi Calm Calm - N/A   Clear
11:15 AM 42.1 °F - 21.4 °F 44% 29.88 in 10.0 mi Calm Calm - N/A   Clear
11:35 AM 45.9 °F 42.9 °F 21.7 °F 38% 29.87 in 10.0 mi SE 5.8 mph - N/A   Clear
11:55 AM 48.6 °F - 12.7 °F 24% 29.87 in 10.0 mi East 8.1 mph - N/A   Clear
12:15 PM 50.2 °F - 14.4 °F 24% 29.86 in 10.0 mi East 9.2 mph - N/A   Clear
12:35 PM 50.7 °F - 10.4 °F 20% 29.86 in 10.0 mi ESE 6.9 mph - N/A   Clear
12:55 PM 50.2 °F - 12.0 °F 22% 29.85 in 10.0 mi SSE 11.5 mph - N/A   Clear
1:15 PM 47.5 °F - 19.2 °F 33% 29.83 in 10.0 mi SE 12.7 mph - N/A   Clear
1:35 PM 45.9 °F 40.4 °F 19.4 °F 35% 29.83 in 10.0 mi SE 11.5 mph - N/A   Clear
1:55 PM 45.0 °F 39.3 °F 18.3 °F 35% 29.82 in 10.0 mi SE 11.5 mph - N/A   Clear
2:15 PM 45.5 °F 40.3 °F 18.3 °F 34% 29.81 in 10.0 mi SE 10.4 mph - N/A   Clear
2:35 PM 46.8 °F - 17.4 °F 31% 29.80 in 10.0 mi SSE 12.7 mph - N/A   Clear
2:55 PM 48.7 °F - 16.0 °F 27% 29.79 in 10.0 mi SE 12.7 mph - N/A   Clear
3:15 PM 49.6 °F - 17.8 °F 28% 29.77 in 10.0 mi SE 12.7 mph 18.4 mph N/A   Clear
3:35 PM 50.0 °F - 18.7 °F 29% 29.76 in 10.0 mi SSE 12.7 mph 18.4 mph N/A   Clear
3:55 PM 50.2 °F - 18.9 °F 29% 29.75 in 10.0 mi SSE 15.0 mph - N/A   Clear
4:15 PM 50.4 °F - 19.4 °F 30% 29.75 in 10.0 mi SSE 15.0 mph - N/A   Clear
4:35 PM 49.6 °F - 18.7 °F 29% 29.75 in 10.0 mi SSE 12.7 mph - N/A   Clear
4:55 PM 49.1 °F - 19.0 °F 30% 29.74 in 10.0 mi SSE 12.7 mph - N/A   Clear
5:15 PM 48.6 °F - 19.4 °F 32% 29.74 in 10.0 mi SSE 10.4 mph - N/A   Clear
5:35 PM 47.1 °F - 19.2 °F 33% 29.74 in 10.0 mi SE 8.1 mph - N/A   Clear
5:55 PM 44.1 °F - 19.2 °F 37% 29.73 in 10.0 mi Calm Calm - N/A   Clear
6:15 PM 41.2 °F 38.2 °F 19.0 °F 41% 29.73 in 10.0 mi ESE 4.6 mph - N/A   Clear
6:35 PM 35.8 °F - 18.3 °F 49% 29.73 in 10.0 mi Calm Calm - N/A   Clear
6:55 PM 35.8 °F - 18.3 °F 49% 29.73 in 10.0 mi Calm Calm - N/A   Clear
7:15 PM 33.6 °F - 18.0 °F 53% 29.72 in 10.0 mi Calm Calm - N/A   Clear
7:35 PM 33.8 °F 30.8 °F 17.4 °F 51% 29.72 in 10.0 mi NE 3.5 mph - N/A   Clear
7:55 PM 31.8 °F 26.2 °F 17.6 °F 56% 29.71 in 10.0 mi NNE 5.8 mph - N/A   Clear
8:15 PM 32.0 °F 26.4 °F 18.9 °F 58% 29.70 in 10.0 mi North 5.8 mph - N/A   Clear
8:35 PM 30.2 °F 23.4 °F 17.4 °F 59% 29.70 in 10.0 mi NE 6.9 mph - N/A   Clear
8:55 PM 31.1 °F 25.4 °F 17.8 °F 58% 29.70 in 10.0 mi NE 5.8 mph - N/A   Clear
9:15 PM 29.5 °F 22.5 °F 17.1 °F 60% 29.69 in 10.0 mi ENE 6.9 mph - N/A   Clear
9:35 PM 29.8 °F 23.9 °F 17.8 °F 61% 29.69 in 10.0 mi NE 5.8 mph - N/A   Clear
9:55 PM 31.6 °F 27.0 °F 18.7 °F 59% 29.68 in 10.0 mi ENE 4.6 mph - N/A   Clear
10:15 PM 30.7 °F - 18.7 °F 61% 29.68 in 10.0 mi Calm Calm - N/A   Clear
10:35 PM 27.1 °F 23.2 °F 17.4 °F 67% 29.68 in 10.0 mi East 3.5 mph - N/A   Clear
10:55 PM 28.6 °F - 17.8 °F 64% 29.68 in 10.0 mi Calm Calm - N/A   Clear
11:15 PM 25.0 °F - 16.9 °F 71% 29.67 in 10.0 mi Calm Calm - N/A   Clear
11:35 PM 29.7 °F 26.1 °F 19.2 °F 65% 29.66 in 10.0 mi SSW 3.5 mph - N/A   Clear
11:55 PM 29.7 °F 22.8 °F 18.9 °F 64% 29.66 in 10.0 mi SSW 6.9 mph - N/A   Clear